sensor_id;sensor_type;location;lat;lon;timestamp;temperature;humidity
27779;DHT22;30234;48.090;11.464;2022-08-03T00:03:45;15.40;99.90
27779;DHT22;30234;48.090;11.464;2022-08-03T00:07:46;15.50;99.90
27779;DHT22;30234;48.090;11.464;2022-08-03T00:11:47;15.40;99.90
27779;DHT22;30234;48.090;11.464;2022-08-03T00:15:48;15.40;99.90
27779;DHT22;30234;48.090;11.464;2022-08-03T00:19:48;15.50;99.90
27779;DHT22;30234;48.090;11.464;2022-08-03T00:23:49;15.40;99.90
27779;DHT22;30234;48.090;11.464;2022-08-03T00:27:50;15.40;99.90
27779;DHT22;30234;48.090;11.464;2022-08-03T00:31:51;15.60;99.90
27779;DHT22;30234;48.090;11.464;2022-08-03T00:35:51;15.70;99.90
27779;DHT22;30234;48.090;11.464;2022-08-03T00:39:52;15.70;99.90
27779;DHT22;30234;48.090;11.464;2022-08-03T00:43:53;15.70;99.90
27779;DHT22;30234;48.090;11.464;2022-08-03T00:47:54;15.60;99.90
27779;DHT22;30234;48.090;11.464;2022-08-03T00:51:55;15.50;99.90
27779;DHT22;30234;48.090;11.464;2022-08-03T00:55:57;15.30;99.90
27779;DHT22;30234;48.090;11.464;2022-08-03T00:59:58;15.20;99.90
27779;DHT22;30234;48.090;11.464;2022-08-03T01:04:00;15.10;99.90
27779;DHT22;30234;48.090;11.464;2022-08-03T01:08:17;15.10;99.90
27779;DHT22;30234;48.090;11.464;2022-08-03T01:17:15;15.00;99.90
27779;DHT22;30234;48.090;11.464;2022-08-03T01:21:33;14.90;99.90
27779;DHT22;30234;48.090;11.464;2022-08-03T01:26:02;14.80;99.90
27779;DHT22;30234;48.090;11.464;2022-08-03T01:30:12;14.60;99.90
27779;DHT22;30234;48.090;11.464;2022-08-03T01:34:15;14.60;99.90
27779;DHT22;30234;48.090;11.464;2022-08-03T01:38:32;14.50;99.90
27779;DHT22;30234;48.090;11.464;2022-08-03T01:42:35;14.50;99.90
27779;DHT22;30234;48.090;11.464;2022-08-03T01:46:38;14.50;99.90
27779;DHT22;30234;48.090;11.464;2022-08-03T01:50:40;14.40;99.90
27779;DHT22;30234;48.090;11.464;2022-08-03T01:54:43;14.40;99.90
27779;DHT22;30234;48.090;11.464;2022-08-03T01:58:45;14.40;99.90
27779;DHT22;30234;48.090;11.464;2022-08-03T02:02:48;14.40;99.90
27779;DHT22;30234;48.090;11.464;2022-08-03T02:06:50;14.30;99.90
27779;DHT22;30234;48.090;11.464;2022-08-03T02:10:56;14.40;99.90
27779;DHT22;30234;48.090;11.464;2022-08-03T02:14:58;14.30;99.90
27779;DHT22;30234;48.090;11.464;2022-08-03T02:19:02;14.30;99.90
27779;DHT22;30234;48.090;11.464;2022-08-03T02:23:04;14.20;99.90
27779;DHT22;30234;48.090;11.464;2022-08-03T02:27:22;14.30;99.90
27779;DHT22;30234;48.090;11.464;2022-08-03T02:31:27;14.30;99.90
27779;DHT22;30234;48.090;11.464;2022-08-03T02:35:29;14.40;99.90
27779;DHT22;30234;48.090;11.464;2022-08-03T02:39:32;14.40;99.90
27779;DHT22;30234;48.090;11.464;2022-08-03T02:43:36;14.40;99.90
27779;DHT22;30234;48.090;11.464;2022-08-03T02:47:40;14.30;99.90
27779;DHT22;30234;48.090;11.464;2022-08-03T02:51:42;14.20;99.90
27779;DHT22;30234;48.090;11.464;2022-08-03T02:55:46;14.10;99.90
27779;DHT22;30234;48.090;11.464;2022-08-03T02:59:48;14.10;99.90
27779;DHT22;30234;48.090;11.464;2022-08-03T03:03:52;14.00;99.90
27779;DHT22;30234;48.090;11.464;2022-08-03T03:07:54;14.20;99.90
27779;DHT22;30234;48.090;11.464;2022-08-03T03:11:55;14.10;99.90
27779;DHT22;30234;48.090;11.464;2022-08-03T03:16:00;14.00;99.90
27779;DHT22;30234;48.090;11.464;2022-08-03T03:20:03;14.10;99.90
27779;DHT22;30234;48.090;11.464;2022-08-03T03:24:07;14.00;99.90
27779;DHT22;30234;48.090;11.464;2022-08-03T03:28:09;14.00;99.90
27779;DHT22;30234;48.090;11.464;2022-08-03T03:32:11;14.10;99.90
27779;DHT22;30234;48.090;11.464;2022-08-03T03:36:12;14.20;99.90
27779;DHT22;30234;48.090;11.464;2022-08-03T03:40:13;14.10;99.90
27779;DHT22;30234;48.090;11.464;2022-08-03T03:44:15;14.10;99.90
27779;DHT22;30234;48.090;11.464;2022-08-03T03:48:15;14.10;99.90
27779;DHT22;30234;48.090;11.464;2022-08-03T03:52:16;14.10;99.90
27779;DHT22;30234;48.090;11.464;2022-08-03T03:56:17;14.20;99.90
27779;DHT22;30234;48.090;11.464;2022-08-03T04:00:19;14.30;99.90
27779;DHT22;30234;48.090;11.464;2022-08-03T04:04:20;14.30;99.90
27779;DHT22;30234;48.090;11.464;2022-08-03T04:08:39;14.40;99.90
27779;DHT22;30234;48.090;11.464;2022-08-03T04:13:02;14.50;99.90
27779;DHT22;30234;48.090;11.464;2022-08-03T04:17:08;14.50;99.90
27779;DHT22;30234;48.090;11.464;2022-08-03T04:21:12;14.50;99.90
27779;DHT22;30234;48.090;11.464;2022-08-03T04:25:15;14.50;99.90
27779;DHT22;30234;48.090;11.464;2022-08-03T04:29:18;14.60;99.90
27779;DHT22;30234;48.090;11.464;2022-08-03T04:33:21;14.70;99.90
27779;DHT22;30234;48.090;11.464;2022-08-03T04:41:45;15.70;99.90
27779;DHT22;30234;48.090;11.464;2022-08-03T04:45:49;19.40;99.90
27779;DHT22;30234;48.090;11.464;2022-08-03T04:49:51;22.00;99.90
27779;DHT22;30234;48.090;11.464;2022-08-03T04:53:52;23.70;99.90
27779;DHT22;30234;48.090;11.464;2022-08-03T04:57:53;25.20;99.90
27779;DHT22;30234;48.090;11.464;2022-08-03T05:01:54;26.60;99.90
27779;DHT22;30234;48.090;11.464;2022-08-03T05:05:55;28.10;99.90
27779;DHT22;30234;48.090;11.464;2022-08-03T05:09:56;29.00;97.00
27779;DHT22;30234;48.090;11.464;2022-08-03T05:14:21;30.00;93.40
27779;DHT22;30234;48.090;11.464;2022-08-03T05:18:25;31.30;89.20
27779;DHT22;30234;48.090;11.464;2022-08-03T05:22:26;32.20;80.80
27779;DHT22;30234;48.090;11.464;2022-08-03T05:26:27;32.40;76.00
27779;DHT22;30234;48.090;11.464;2022-08-03T05:30:31;33.20;73.10
27779;DHT22;30234;48.090;11.464;2022-08-03T05:34:35;33.60;68.30
27779;DHT22;30234;48.090;11.464;2022-08-03T05:38:46;33.90;66.40
27779;DHT22;30234;48.090;11.464;2022-08-03T05:47:26;35.00;62.20
27779;DHT22;30234;48.090;11.464;2022-08-03T05:51:27;35.40;59.50
27779;DHT22;30234;48.090;11.464;2022-08-03T05:55:28;35.90;58.30
27779;DHT22;30234;48.090;11.464;2022-08-03T05:59:29;36.90;55.80
27779;DHT22;30234;48.090;11.464;2022-08-03T06:03:36;38.40;53.10
27779;DHT22;30234;48.090;11.464;2022-08-03T06:07:39;39.10;50.70
27779;DHT22;30234;48.090;11.464;2022-08-03T06:11:49;39.50;48.70
27779;DHT22;30234;48.090;11.464;2022-08-03T06:15:53;40.40;47.00
27779;DHT22;30234;48.090;11.464;2022-08-03T06:19:54;40.10;47.00
27779;DHT22;30234;48.090;11.464;2022-08-03T06:23:55;40.60;45.80
27779;DHT22;30234;48.090;11.464;2022-08-03T06:27:56;41.20;44.40
27779;DHT22;30234;48.090;11.464;2022-08-03T06:31:59;41.50;44.20
27779;DHT22;30234;48.090;11.464;2022-08-03T06:36:00;41.50;42.60
27779;DHT22;30234;48.090;11.464;2022-08-03T06:40:02;41.60;42.70
27779;DHT22;30234;48.090;11.464;2022-08-03T06:44:06;41.80;42.30
27779;DHT22;30234;48.090;11.464;2022-08-03T06:48:10;41.40;41.90
27779;DHT22;30234;48.090;11.464;2022-08-03T06:52:18;41.40;42.30
27779;DHT22;30234;48.090;11.464;2022-08-03T07:01:26;40.50;42.30
27779;DHT22;30234;48.090;11.464;2022-08-03T07:05:27;40.80;42.30
27779;DHT22;30234;48.090;11.464;2022-08-03T07:14:54;41.60;40.70
27779;DHT22;30234;48.090;11.464;2022-08-03T07:18:58;40.70;40.70
27779;DHT22;30234;48.090;11.464;2022-08-03T07:28:12;40.10;41.40
27779;DHT22;30234;48.090;11.464;2022-08-03T07:32:13;40.60;40.40
27779;DHT22;30234;48.090;11.464;2022-08-03T07:37:07;40.40;40.50
27779;DHT22;30234;48.090;11.464;2022-08-03T07:46:33;39.70;41.90
27779;DHT22;30234;48.090;11.464;2022-08-03T07:50:57;39.40;40.90
27779;DHT22;30234;48.090;11.464;2022-08-03T07:55:29;39.10;41.20
27779;DHT22;30234;48.090;11.464;2022-08-03T07:59:32;39.10;40.90
27779;DHT22;30234;48.090;11.464;2022-08-03T08:03:59;38.90;42.50
27779;DHT22;30234;48.090;11.464;2022-08-03T08:08:29;39.50;41.70
27779;DHT22;30234;48.090;11.464;2022-08-03T08:17:50;36.40;45.00
27779;DHT22;30234;48.090;11.464;2022-08-03T08:36:51;38.30;43.60
27779;DHT22;30234;48.090;11.464;2022-08-03T08:40:54;37.10;42.80
27779;DHT22;30234;48.090;11.464;2022-08-03T08:44:59;36.50;43.70
27779;DHT22;30234;48.090;11.464;2022-08-03T08:49:22;36.90;44.80
27779;DHT22;30234;48.090;11.464;2022-08-03T08:53:28;37.80;42.90
27779;DHT22;30234;48.090;11.464;2022-08-03T08:57:36;38.90;43.00
27779;DHT22;30234;48.090;11.464;2022-08-03T09:01:39;37.70;42.20
27779;DHT22;30234;48.090;11.464;2022-08-03T09:05:49;37.70;43.10
27779;DHT22;30234;48.090;11.464;2022-08-03T09:09:58;38.70;41.10
27779;DHT22;30234;48.090;11.464;2022-08-03T09:14:06;37.80;42.10
27779;DHT22;30234;48.090;11.464;2022-08-03T09:23:08;38.70;39.50
27779;DHT22;30234;48.090;11.464;2022-08-03T09:27:12;38.70;40.20
27779;DHT22;30234;48.090;11.464;2022-08-03T09:41:43;37.50;38.10
27779;DHT22;30234;48.090;11.464;2022-08-03T09:46:04;36.80;39.80
27779;DHT22;30234;48.090;11.464;2022-08-03T10:01:12;38.90;37.60
27779;DHT22;30234;48.090;11.464;2022-08-03T10:05:43;38.30;37.60
27779;DHT22;30234;48.090;11.464;2022-08-03T10:10:17;38.50;37.90
27779;DHT22;30234;48.090;11.464;2022-08-03T10:19:53;38.10;37.50
27779;DHT22;30234;48.090;11.464;2022-08-03T10:23:58;37.10;38.10
27779;DHT22;30234;48.090;11.464;2022-08-03T10:28:13;37.60;37.60
27779;DHT22;30234;48.090;11.464;2022-08-03T10:32:54;38.20;34.90
27779;DHT22;30234;48.090;11.464;2022-08-03T10:36:59;38.80;35.20
27779;DHT22;30234;48.090;11.464;2022-08-03T10:41:05;38.70;35.80
27779;DHT22;30234;48.090;11.464;2022-08-03T10:45:27;37.80;37.40
27779;DHT22;30234;48.090;11.464;2022-08-03T10:59:06;39.20;34.70
27779;DHT22;30234;48.090;11.464;2022-08-03T11:03:26;37.00;37.30
27779;DHT22;30234;48.090;11.464;2022-08-03T11:07:26;36.00;37.60
27779;DHT22;30234;48.090;11.464;2022-08-03T11:12:24;36.20;37.50
27779;DHT22;30234;48.090;11.464;2022-08-03T11:16:32;36.40;37.20
27779;DHT22;30234;48.090;11.464;2022-08-03T11:20:47;36.10;37.40
27779;DHT22;30234;48.090;11.464;2022-08-03T11:24:56;36.50;35.60
27779;DHT22;30234;48.090;11.464;2022-08-03T11:29:33;37.20;35.40
27779;DHT22;30234;48.090;11.464;2022-08-03T11:49:19;35.40;37.40
27779;DHT22;30234;48.090;11.464;2022-08-03T11:58:50;35.40;35.90
27779;DHT22;30234;48.090;11.464;2022-08-03T12:03:00;35.50;36.20
27779;DHT22;30234;48.090;11.464;2022-08-03T12:07:33;35.40;34.20
27779;DHT22;30234;48.090;11.464;2022-08-03T12:12:00;35.50;34.90
27779;DHT22;30234;48.090;11.464;2022-08-03T12:16:11;35.70;34.70
27779;DHT22;30234;48.090;11.464;2022-08-03T12:21:03;36.00;34.30
27779;DHT22;30234;48.090;11.464;2022-08-03T12:25:39;35.30;35.10
27779;DHT22;30234;48.090;11.464;2022-08-03T12:34:48;35.40;34.40
27779;DHT22;30234;48.090;11.464;2022-08-03T12:38:55;35.80;33.80
27779;DHT22;30234;48.090;11.464;2022-08-03T12:42:57;36.20;35.50
27779;DHT22;30234;48.090;11.464;2022-08-03T12:47:00;36.20;36.30
27779;DHT22;30234;48.090;11.464;2022-08-03T12:51:18;35.60;35.10
27779;DHT22;30234;48.090;11.464;2022-08-03T12:55:42;35.30;34.50
27779;DHT22;30234;48.090;11.464;2022-08-03T13:09:54;35.80;34.30
27779;DHT22;30234;48.090;11.464;2022-08-03T13:14:09;35.60;32.90
27779;DHT22;30234;48.090;11.464;2022-08-03T13:18:15;35.30;34.70
27779;DHT22;30234;48.090;11.464;2022-08-03T13:22:25;35.40;33.50
27779;DHT22;30234;48.090;11.464;2022-08-03T13:26:46;35.50;32.80
27779;DHT22;30234;48.090;11.464;2022-08-03T13:35:24;36.60;32.70
27779;DHT22;30234;48.090;11.464;2022-08-03T13:39:25;36.50;30.80
27779;DHT22;30234;48.090;11.464;2022-08-03T13:43:29;36.30;32.80
27779;DHT22;30234;48.090;11.464;2022-08-03T13:47:33;36.40;31.80
27779;DHT22;30234;48.090;11.464;2022-08-03T13:51:42;36.90;31.30
27779;DHT22;30234;48.090;11.464;2022-08-03T13:56:04;37.50;30.80
27779;DHT22;30234;48.090;11.464;2022-08-03T14:00:05;37.80;31.30
27779;DHT22;30234;48.090;11.464;2022-08-03T14:04:07;37.50;30.00
27779;DHT22;30234;48.090;11.464;2022-08-03T14:08:11;37.50;32.10
27779;DHT22;30234;48.090;11.464;2022-08-03T14:12:18;36.50;30.80
27779;DHT22;30234;48.090;11.464;2022-08-03T14:16:22;36.20;32.40
27779;DHT22;30234;48.090;11.464;2022-08-03T14:24:36;35.30;33.70
27779;DHT22;30234;48.090;11.464;2022-08-03T14:28:40;35.90;34.00
27779;DHT22;30234;48.090;11.464;2022-08-03T14:32:41;36.50;31.60
27779;DHT22;30234;48.090;11.464;2022-08-03T14:36:42;36.60;31.20
27779;DHT22;30234;48.090;11.464;2022-08-03T14:40:43;36.70;32.50
27779;DHT22;30234;48.090;11.464;2022-08-03T14:44:47;36.80;33.30
27779;DHT22;30234;48.090;11.464;2022-08-03T14:48:51;36.50;33.00
27779;DHT22;30234;48.090;11.464;2022-08-03T14:52:52;36.10;31.40
27779;DHT22;30234;48.090;11.464;2022-08-03T14:56:53;36.00;33.40
27779;DHT22;30234;48.090;11.464;2022-08-03T15:00:54;35.90;33.30
27779;DHT22;30234;48.090;11.464;2022-08-03T15:04:55;36.30;33.20
27779;DHT22;30234;48.090;11.464;2022-08-03T15:08:56;36.70;33.80
27779;DHT22;30234;48.090;11.464;2022-08-03T15:13:00;36.90;33.20
27779;DHT22;30234;48.090;11.464;2022-08-03T15:17:10;37.00;32.80
27779;DHT22;30234;48.090;11.464;2022-08-03T15:21:24;37.20;33.60
27779;DHT22;30234;48.090;11.464;2022-08-03T15:25:34;36.40;32.50
27779;DHT22;30234;48.090;11.464;2022-08-03T15:29:39;35.80;33.90
27779;DHT22;30234;48.090;11.464;2022-08-03T15:33:40;35.50;34.90
27779;DHT22;30234;48.090;11.464;2022-08-03T15:37:41;35.60;34.00
27779;DHT22;30234;48.090;11.464;2022-08-03T15:41:49;35.60;34.70
27779;DHT22;30234;48.090;11.464;2022-08-03T15:45:58;35.50;33.70
27779;DHT22;30234;48.090;11.464;2022-08-03T15:50:17;35.40;35.10
27779;DHT22;30234;48.090;11.464;2022-08-03T16:04:38;34.90;34.80
27779;DHT22;30234;48.090;11.464;2022-08-03T16:13:10;34.90;34.20
27779;DHT22;30234;48.090;11.464;2022-08-03T16:17:15;35.10;34.90
27779;DHT22;30234;48.090;11.464;2022-08-03T16:21:23;34.80;36.00
27779;DHT22;30234;48.090;11.464;2022-08-03T16:25:25;34.40;35.90
27779;DHT22;30234;48.090;11.464;2022-08-03T16:29:33;34.20;36.50
27779;DHT22;30234;48.090;11.464;2022-08-03T16:34:12;33.90;36.60
27779;DHT22;30234;48.090;11.464;2022-08-03T16:38:13;33.60;36.90
27779;DHT22;30234;48.090;11.464;2022-08-03T16:42:22;33.60;36.70
27779;DHT22;30234;48.090;11.464;2022-08-03T16:46:43;33.50;37.70
27779;DHT22;30234;48.090;11.464;2022-08-03T16:50:47;33.30;36.80
27779;DHT22;30234;48.090;11.464;2022-08-03T16:54:54;33.10;38.30
27779;DHT22;30234;48.090;11.464;2022-08-03T17:03:18;32.40;39.40
27779;DHT22;30234;48.090;11.464;2022-08-03T17:08:00;32.20;40.10
27779;DHT22;30234;48.090;11.464;2022-08-03T17:12:15;32.10;39.90
27779;DHT22;30234;48.090;11.464;2022-08-03T17:16:17;32.10;41.00
27779;DHT22;30234;48.090;11.464;2022-08-03T17:20:19;31.60;41.10
27779;DHT22;30234;48.090;11.464;2022-08-03T17:24:35;31.30;42.10
27779;DHT22;30234;48.090;11.464;2022-08-03T17:28:43;31.00;42.40
27779;DHT22;30234;48.090;11.464;2022-08-03T17:32:46;30.80;43.10
27779;DHT22;30234;48.090;11.464;2022-08-03T17:36:48;30.40;43.90
27779;DHT22;30234;48.090;11.464;2022-08-03T17:40:49;30.00;44.80
27779;DHT22;30234;48.090;11.464;2022-08-03T17:44:51;29.80;45.80
27779;DHT22;30234;48.090;11.464;2022-08-03T17:48:52;29.50;46.00
27779;DHT22;30234;48.090;11.464;2022-08-03T17:53:07;29.30;47.00
27779;DHT22;30234;48.090;11.464;2022-08-03T17:57:30;29.10;46.90
27779;DHT22;30234;48.090;11.464;2022-08-03T18:01:58;28.90;47.50
27779;DHT22;30234;48.090;11.464;2022-08-03T18:06:21;28.80;47.80
27779;DHT22;30234;48.090;11.464;2022-08-03T18:10:23;28.60;48.30
27779;DHT22;30234;48.090;11.464;2022-08-03T18:14:33;28.40;49.00
27779;DHT22;30234;48.090;11.464;2022-08-03T18:18:46;28.10;49.90
27779;DHT22;30234;48.090;11.464;2022-08-03T18:22:53;27.70;51.10
27779;DHT22;30234;48.090;11.464;2022-08-03T18:26:55;27.40;51.80
27779;DHT22;30234;48.090;11.464;2022-08-03T18:30:57;27.10;52.00
27779;DHT22;30234;48.090;11.464;2022-08-03T18:35:02;27.00;52.80
27779;DHT22;30234;48.090;11.464;2022-08-03T18:39:04;26.80;53.00
27779;DHT22;30234;48.090;11.464;2022-08-03T18:43:05;26.50;53.00
27779;DHT22;30234;48.090;11.464;2022-08-03T18:51:27;25.90;54.50
27779;DHT22;30234;48.090;11.464;2022-08-03T18:55:31;25.60;55.80
27779;DHT22;30234;48.090;11.464;2022-08-03T18:59:45;25.40;56.10
27779;DHT22;30234;48.090;11.464;2022-08-03T19:03:55;25.20;56.80
27779;DHT22;30234;48.090;11.464;2022-08-03T19:08:04;24.90;58.60
27779;DHT22;30234;48.090;11.464;2022-08-03T19:12:28;24.60;60.70
27779;DHT22;30234;48.090;11.464;2022-08-03T19:16:35;24.30;63.30
27779;DHT22;30234;48.090;11.464;2022-08-03T19:20:37;23.90;65.20
27779;DHT22;30234;48.090;11.464;2022-08-03T19:24:41;23.60;66.20
27779;DHT22;30234;48.090;11.464;2022-08-03T19:28:42;23.20;67.80
27779;DHT22;30234;48.090;11.464;2022-08-03T19:32:43;23.00;68.30
27779;DHT22;30234;48.090;11.464;2022-08-03T19:36:44;22.70;69.60
27779;DHT22;30234;48.090;11.464;2022-08-03T19:40:48;22.50;71.10
27779;DHT22;30234;48.090;11.464;2022-08-03T19:45:04;22.30;72.50
27779;DHT22;30234;48.090;11.464;2022-08-03T19:49:11;22.10;74.40
27779;DHT22;30234;48.090;11.464;2022-08-03T19:53:14;21.90;75.60
27779;DHT22;30234;48.090;11.464;2022-08-03T19:57:17;21.90;76.90
27779;DHT22;30234;48.090;11.464;2022-08-03T20:01:18;21.70;78.40
27779;DHT22;30234;48.090;11.464;2022-08-03T20:05:19;21.60;80.00
27779;DHT22;30234;48.090;11.464;2022-08-03T20:09:20;21.40;83.10
27779;DHT22;30234;48.090;11.464;2022-08-03T20:13:20;21.20;87.40
27779;DHT22;30234;48.090;11.464;2022-08-03T20:17:21;21.00;91.50
27779;DHT22;30234;48.090;11.464;2022-08-03T20:21:23;20.90;95.20
27779;DHT22;30234;48.090;11.464;2022-08-03T20:25:31;20.80;99.90
27779;DHT22;30234;48.090;11.464;2022-08-03T20:29:43;20.60;99.90
27779;DHT22;30234;48.090;11.464;2022-08-03T20:33:48;20.50;99.90
27779;DHT22;30234;48.090;11.464;2022-08-03T20:37:49;20.40;99.90
27779;DHT22;30234;48.090;11.464;2022-08-03T20:41:49;20.30;99.90
27779;DHT22;30234;48.090;11.464;2022-08-03T20:45:50;20.30;99.90
27779;DHT22;30234;48.090;11.464;2022-08-03T20:49:51;20.10;99.90
27779;DHT22;30234;48.090;11.464;2022-08-03T20:53:53;19.90;99.90
27779;DHT22;30234;48.090;11.464;2022-08-03T20:57:55;19.80;99.90
27779;DHT22;30234;48.090;11.464;2022-08-03T21:01:55;19.60;99.90
27779;DHT22;30234;48.090;11.464;2022-08-03T21:05:59;19.50;99.90
27779;DHT22;30234;48.090;11.464;2022-08-03T21:10:06;19.40;99.90
27779;DHT22;30234;48.090;11.464;2022-08-03T21:14:14;19.30;99.90
27779;DHT22;30234;48.090;11.464;2022-08-03T21:18:19;19.20;99.90
27779;DHT22;30234;48.090;11.464;2022-08-03T21:22:21;19.00;99.90
27779;DHT22;30234;48.090;11.464;2022-08-03T21:26:26;19.00;99.90
27779;DHT22;30234;48.090;11.464;2022-08-03T21:30:28;19.00;99.90
27779;DHT22;30234;48.090;11.464;2022-08-03T21:34:29;18.80;99.90
27779;DHT22;30234;48.090;11.464;2022-08-03T21:38:30;18.70;99.90
27779;DHT22;30234;48.090;11.464;2022-08-03T21:42:32;18.70;99.90
27779;DHT22;30234;48.090;11.464;2022-08-03T21:46:35;18.60;99.90
27779;DHT22;30234;48.090;11.464;2022-08-03T21:50:38;18.70;99.90
27779;DHT22;30234;48.090;11.464;2022-08-03T21:54:42;18.60;99.90
27779;DHT22;30234;48.090;11.464;2022-08-03T21:58:49;18.50;99.90
27779;DHT22;30234;48.090;11.464;2022-08-03T22:02:55;18.60;99.90
27779;DHT22;30234;48.090;11.464;2022-08-03T22:06:56;18.40;99.90
27779;DHT22;30234;48.090;11.464;2022-08-03T22:10:57;18.20;99.90
27779;DHT22;30234;48.090;11.464;2022-08-03T22:15:00;18.00;99.90
27779;DHT22;30234;48.090;11.464;2022-08-03T22:19:01;17.90;99.90
27779;DHT22;30234;48.090;11.464;2022-08-03T22:23:04;17.90;99.90
27779;DHT22;30234;48.090;11.464;2022-08-03T22:27:05;17.80;99.90
27779;DHT22;30234;48.090;11.464;2022-08-03T22:31:25;17.70;99.90
27779;DHT22;30234;48.090;11.464;2022-08-03T22:35:26;17.60;99.90
27779;DHT22;30234;48.090;11.464;2022-08-03T22:39:28;17.50;99.90
27779;DHT22;30234;48.090;11.464;2022-08-03T22:43:32;17.40;99.90
27779;DHT22;30234;48.090;11.464;2022-08-03T22:47:37;17.30;99.90
27779;DHT22;30234;48.090;11.464;2022-08-03T22:51:39;17.30;99.90
27779;DHT22;30234;48.090;11.464;2022-08-03T22:55:41;17.20;99.90
27779;DHT22;30234;48.090;11.464;2022-08-03T22:59:42;17.30;99.90
27779;DHT22;30234;48.090;11.464;2022-08-03T23:03:51;17.20;99.90
27779;DHT22;30234;48.090;11.464;2022-08-03T23:07:53;17.20;99.90
27779;DHT22;30234;48.090;11.464;2022-08-03T23:11:54;17.10;99.90
27779;DHT22;30234;48.090;11.464;2022-08-03T23:15:57;17.00;99.90
27779;DHT22;30234;48.090;11.464;2022-08-03T23:20:07;17.00;99.90
27779;DHT22;30234;48.090;11.464;2022-08-03T23:24:08;16.90;99.90
27779;DHT22;30234;48.090;11.464;2022-08-03T23:28:13;16.80;99.90
27779;DHT22;30234;48.090;11.464;2022-08-03T23:32:19;16.80;99.90
27779;DHT22;30234;48.090;11.464;2022-08-03T23:36:20;16.70;99.90
27779;DHT22;30234;48.090;11.464;2022-08-03T23:40:26;16.70;99.90
27779;DHT22;30234;48.090;11.464;2022-08-03T23:44:32;16.70;99.90
27779;DHT22;30234;48.090;11.464;2022-08-03T23:48:33;16.70;99.90
